createdAt,value
2023-01-22T15:09:38.270Z,1025.65
2023-01-22T15:10:02.621Z,1025.66
2023-01-22T15:11:02.364Z,1025.71
2023-01-22T15:12:02.315Z,1025.69
2023-01-22T15:13:03.324Z,1025.70
2023-01-22T15:14:05.315Z,1025.70
2023-01-22T15:15:02.258Z,1025.73
2023-01-22T15:16:02.296Z,1025.72
2023-01-22T15:17:02.307Z,1025.74
2023-01-22T15:18:02.653Z,1025.70
2023-01-22T15:19:02.256Z,1025.73
2023-01-22T15:20:02.239Z,1025.73
2023-01-22T15:21:02.333Z,1025.70
2023-01-22T15:22:02.378Z,1025.72
2023-01-22T15:23:02.331Z,1025.75
2023-01-22T15:24:10.346Z,1025.74
2023-01-22T15:25:02.329Z,1025.76
2023-01-22T15:26:02.235Z,1025.76
2023-01-22T15:27:02.206Z,1025.77
2023-01-22T15:28:02.217Z,1025.76
2023-01-22T15:29:02.201Z,1025.76
2023-01-22T15:30:02.213Z,1025.80
2023-01-22T15:31:02.245Z,1025.76
2023-01-22T15:32:02.174Z,1025.77
2023-01-22T15:33:02.210Z,1025.80
2023-01-22T15:34:02.210Z,1025.79
2023-01-22T15:35:02.204Z,1025.82
2023-01-22T15:36:02.171Z,1025.82
2023-01-22T15:37:02.176Z,1025.81
2023-01-22T15:38:02.159Z,1025.83
2023-01-22T15:39:02.161Z,1025.83
2023-01-22T15:40:02.195Z,1025.92
2023-01-22T15:41:02.255Z,1025.93
2023-01-22T15:42:02.205Z,1025.98
2023-01-22T15:43:03.630Z,1025.87
2023-01-22T15:44:02.130Z,1025.97
2023-01-22T15:45:02.142Z,1025.96
2023-01-22T15:46:02.159Z,1025.98
2023-01-22T15:47:02.126Z,1025.98
2023-01-22T15:48:02.133Z,1026.02
2023-01-22T15:49:02.146Z,1026.03
2023-01-22T15:50:02.487Z,1026.06
2023-01-22T15:51:02.155Z,1026.09
2023-01-22T15:52:02.124Z,1026.08
2023-01-22T15:53:02.086Z,1026.02
2023-01-22T15:54:07.215Z,1026.07
2023-01-22T15:55:02.088Z,1026.08
2023-01-22T15:56:02.086Z,1026.09
2023-01-22T15:57:02.184Z,1026.13
2023-01-22T15:58:04.672Z,1026.09
2023-01-22T15:59:02.065Z,1026.15
2023-01-22T16:00:02.087Z,1026.17
2023-01-22T16:01:02.200Z,1026.18
2023-01-22T16:02:02.201Z,1026.21
2023-01-22T16:03:02.047Z,1026.18
2023-01-22T16:04:02.046Z,1026.24
2023-01-22T16:05:02.060Z,1026.24
2023-01-22T16:06:02.031Z,1026.25
2023-01-22T16:07:02.051Z,1026.31
2023-01-22T16:08:02.036Z,1026.28
2023-01-22T16:09:02.022Z,1026.28
2023-01-22T16:10:02.027Z,1026.27
2023-01-22T16:11:02.063Z,1026.31
2023-01-22T16:12:01.992Z,1026.25
2023-01-22T16:13:02.101Z,1026.28
2023-01-22T16:14:02.039Z,1026.28
2023-01-22T16:15:02.010Z,1026.28
2023-01-22T16:16:02.003Z,1026.24
2023-01-22T16:17:02.021Z,1026.29
2023-01-22T16:18:02.014Z,1026.27
2023-01-22T16:19:01.998Z,1026.34
2023-01-22T16:20:02.112Z,1026.32
2023-01-22T16:21:01.979Z,1026.30
2023-01-22T16:22:02.007Z,1026.33
2023-01-22T16:23:01.966Z,1026.29
2023-01-22T16:24:01.988Z,1026.26
2023-01-22T16:25:01.979Z,1026.27
2023-01-22T16:26:01.954Z,1026.30
2023-01-22T16:27:01.961Z,1026.34
2023-01-22T16:28:01.992Z,1026.32
2023-01-22T16:29:02.063Z,1026.34
2023-01-22T16:30:02.005Z,1026.38
2023-01-22T16:31:02.116Z,1026.38
2023-01-22T16:32:01.926Z,1026.41
2023-01-22T16:33:04.413Z,1026.38
2023-01-22T16:34:01.931Z,1026.40
2023-01-22T16:35:01.933Z,1026.38
2023-01-22T16:36:01.924Z,1026.44
2023-01-22T16:37:01.903Z,1026.43
2023-01-22T16:38:01.904Z,1026.45
2023-01-22T16:39:01.969Z,1026.44
2023-01-22T16:40:02.020Z,1026.46
2023-01-22T16:41:02.004Z,1026.50
2023-01-22T16:42:01.900Z,1026.47
2023-01-22T16:43:01.886Z,1026.53
2023-01-22T16:44:01.954Z,1026.54
2023-01-22T16:45:01.964Z,1026.51
2023-01-22T16:46:01.944Z,1026.54
2023-01-22T16:47:01.853Z,1026.51
2023-01-22T16:48:01.848Z,1026.51
2023-01-22T16:49:01.861Z,1026.53
2023-01-22T16:50:01.864Z,1026.54
2023-01-22T16:51:01.893Z,1026.53
2023-01-22T16:52:16.808Z,1026.58
2023-01-22T16:53:01.843Z,1026.59
2023-01-22T16:54:01.859Z,1026.62
2023-01-22T16:55:01.864Z,1026.60
2023-01-22T16:56:01.827Z,1026.62
2023-01-22T16:57:01.814Z,1026.64
2023-01-22T16:58:01.806Z,1026.60
2023-01-22T16:59:01.812Z,1026.61
2023-01-22T17:00:01.853Z,1026.55
2023-01-22T17:01:01.967Z,1026.56
2023-01-22T17:02:01.816Z,1026.58
2023-01-22T17:03:01.805Z,1026.61
2023-01-22T17:04:01.784Z,1026.58
2023-01-22T17:05:01.764Z,1026.55
2023-01-22T17:06:01.782Z,1026.56
2023-01-22T17:07:01.771Z,1026.57
2023-01-22T17:08:01.782Z,1026.62
2023-01-22T17:09:01.775Z,1026.62
2023-01-22T17:10:01.867Z,1026.64
2023-01-22T17:11:01.782Z,1026.67
2023-01-22T17:12:01.777Z,1026.66
2023-01-22T17:13:01.734Z,1026.68
2023-01-22T17:14:01.828Z,1026.65
2023-01-22T17:15:01.728Z,1026.68
2023-01-22T17:16:01.786Z,1026.67
2023-01-22T17:17:01.843Z,1026.70
2023-01-22T17:18:01.726Z,1026.75
2023-01-22T17:19:01.812Z,1026.75
2023-01-22T17:20:01.705Z,1026.74
2023-01-22T17:21:02.609Z,1026.74
2023-01-22T17:22:01.718Z,1026.76
2023-01-22T17:23:01.696Z,1026.74
2023-01-22T17:24:01.685Z,1026.77
2023-01-22T17:25:01.693Z,1026.75
2023-01-22T17:26:01.676Z,1026.73
2023-01-22T17:27:01.672Z,1026.71
2023-01-22T17:28:01.674Z,1026.78
2023-01-22T17:29:01.689Z,1026.75
2023-01-22T17:30:01.678Z,1026.78
2023-01-22T17:31:01.765Z,1026.79
2023-01-22T17:32:01.650Z,1026.81
2023-01-22T17:33:01.731Z,1026.80
2023-01-22T17:34:01.649Z,1026.82
2023-01-22T17:35:01.645Z,1026.82
2023-01-22T17:36:01.633Z,1026.86
2023-01-22T17:37:01.623Z,1026.85
2023-01-22T17:38:01.625Z,1026.90
2023-01-22T17:39:01.660Z,1026.89
2023-01-22T17:40:01.623Z,1026.92
2023-01-22T17:41:01.594Z,1026.91
2023-01-22T17:42:01.612Z,1026.99
2023-01-22T17:43:01.655Z,1026.95
2023-01-22T17:44:01.601Z,1027.00
2023-01-22T17:45:01.590Z,1026.95
2023-01-22T17:46:01.635Z,1026.91
2023-01-22T17:47:01.590Z,1026.94
2023-01-22T17:48:01.577Z,1027.01
2023-01-22T17:49:01.669Z,1026.99
2023-01-22T17:50:01.566Z,1026.97
2023-01-22T17:51:01.599Z,1026.98
2023-01-22T17:52:01.611Z,1026.99
2023-01-22T17:53:01.575Z,1026.98
2023-01-22T17:54:01.593Z,1026.99
2023-01-22T17:55:01.583Z,1027.02
2023-01-22T17:56:01.575Z,1027.05
2023-01-22T17:57:01.565Z,1027.07
2023-01-22T17:58:01.576Z,1027.10
2023-01-22T17:59:01.514Z,1027.12
2023-01-22T18:00:01.532Z,1027.10
2023-01-22T18:01:01.567Z,1027.04
2023-01-22T18:02:01.517Z,1027.10
2023-01-22T18:03:01.541Z,1027.01
2023-01-22T18:04:01.516Z,1027.03
2023-01-22T18:05:01.588Z,1027.05
2023-01-22T18:06:01.497Z,1027.08
2023-01-22T18:07:01.495Z,1027.02
2023-01-22T18:08:01.475Z,1027.02
2023-01-22T18:09:01.501Z,1027.05
2023-01-22T18:10:01.508Z,1027.03
2023-01-22T18:11:01.482Z,1027.06
2023-01-22T18:12:01.476Z,1027.08
2023-01-22T18:13:01.473Z,1027.14
2023-01-22T18:14:01.460Z,1027.09
2023-01-22T18:15:01.446Z,1027.03
2023-01-22T18:16:01.568Z,1027.11
2023-01-22T18:17:01.450Z,1027.07
2023-01-22T18:18:01.482Z,1027.13
2023-01-22T18:19:01.487Z,1027.11
2023-01-22T18:20:01.439Z,1027.10
2023-01-22T18:21:01.500Z,1027.10
2023-01-22T18:22:01.467Z,1027.10
2023-01-22T18:23:01.418Z,1027.12
2023-01-22T18:24:01.440Z,1027.13
2023-01-22T18:25:01.417Z,1027.15
2023-01-22T18:26:01.429Z,1027.10
2023-01-22T18:27:01.385Z,1027.14
2023-01-22T18:28:01.400Z,1027.20
2023-01-22T18:29:01.409Z,1027.18
2023-01-22T18:30:01.423Z,1027.14
2023-01-22T18:31:01.605Z,1027.24
2023-01-22T18:32:01.467Z,1027.24
2023-01-22T18:33:01.401Z,1027.24
2023-01-22T18:34:01.396Z,1027.25
2023-01-22T18:35:01.378Z,1027.27
2023-01-22T18:36:01.397Z,1027.24
2023-01-22T18:37:02.213Z,1027.30
2023-01-22T18:38:02.848Z,1027.27
2023-01-22T18:39:05.710Z,1027.26
2023-01-22T18:40:01.434Z,1027.24
2023-01-22T18:41:04.260Z,1027.20
2023-01-22T18:42:01.449Z,1027.24
2023-01-22T18:43:01.330Z,1027.28
2023-01-22T18:44:01.394Z,1027.29
2023-01-22T18:45:02.205Z,1027.25
2023-01-22T18:46:02.273Z,1027.23
2023-01-22T18:47:01.386Z,1027.19
2023-01-22T18:48:01.295Z,1027.21
2023-01-22T18:49:01.347Z,1027.23
2023-01-22T18:50:01.299Z,1027.19
2023-01-22T18:51:01.362Z,1027.24
2023-01-22T18:52:01.432Z,1027.19
2023-01-22T18:53:02.251Z,1027.14
2023-01-22T18:54:01.259Z,1027.13
2023-01-22T18:55:01.258Z,1027.16
2023-01-22T18:56:01.316Z,1027.11
2023-01-22T18:57:01.254Z,1027.13
2023-01-22T18:58:01.280Z,1027.13
2023-01-22T18:59:01.253Z,1027.21
2023-01-22T19:00:01.355Z,1027.26
2023-01-22T19:01:01.257Z,1027.22
2023-01-22T19:02:01.256Z,1027.26
2023-01-22T19:03:01.283Z,1027.26
2023-01-22T19:04:01.267Z,1027.24
2023-01-22T19:05:01.244Z,1027.22
2023-01-22T19:06:01.232Z,1027.24
2023-01-22T19:07:01.223Z,1027.20
2023-01-22T19:08:01.210Z,1027.28
2023-01-22T19:09:01.383Z,1027.26
2023-01-22T19:10:01.250Z,1027.25
2023-01-22T19:11:01.299Z,1027.26
2023-01-22T19:12:01.232Z,1027.24
2023-01-22T19:13:01.195Z,1027.21
2023-01-22T19:14:01.196Z,1027.21
2023-01-22T19:15:01.201Z,1027.28
2023-01-22T19:16:01.224Z,1027.26
2023-01-22T19:17:01.201Z,1027.29
2023-01-22T19:18:01.216Z,1027.31
2023-01-22T19:19:01.163Z,1027.33
2023-01-22T19:20:01.712Z,1027.29
2023-01-22T19:21:01.180Z,1027.30
2023-01-22T19:22:01.160Z,1027.34
2023-01-22T19:23:01.156Z,1027.31
2023-01-22T19:24:01.181Z,1027.31
2023-01-22T19:25:01.226Z,1027.29
2023-01-22T19:26:01.238Z,1027.32
2023-01-22T19:28:59.516Z,1027.28
2023-01-22T19:29:59.474Z,1027.31
2023-01-22T19:30:59.625Z,1027.28
2023-01-22T19:31:59.506Z,1027.32
2023-01-22T19:32:59.655Z,1027.29
2023-01-22T19:33:59.429Z,1027.34
2023-01-22T19:34:59.432Z,1027.40
2023-01-22T19:35:59.409Z,1027.44
2023-01-22T19:36:59.421Z,1027.36
2023-01-22T19:37:59.377Z,1027.43
2023-01-22T19:38:59.394Z,1027.43
2023-01-22T19:39:59.424Z,1027.39
2023-01-22T19:40:59.457Z,1027.41
2023-01-22T19:43:56.172Z,1027.46
2023-01-22T19:44:41.923Z,1027.49
2023-01-22T19:45:41.895Z,1027.52
2023-01-22T19:46:41.941Z,1027.50
2023-01-22T19:47:41.903Z,1027.48
2023-01-22T19:48:41.894Z,1027.51
2023-01-22T19:49:41.953Z,1027.53
2023-01-22T19:50:41.901Z,1027.56
2023-01-22T19:51:41.916Z,1027.57
2023-01-22T19:52:41.968Z,1027.61
2023-01-22T19:53:41.961Z,1027.62
2023-01-22T19:54:42.124Z,1027.60
2023-01-22T19:56:02.272Z,1027.60
2023-01-22T19:56:42.329Z,1027.61
2023-01-22T19:57:41.959Z,1027.56
2023-01-22T19:58:42.133Z,1027.61
2023-01-22T19:59:41.913Z,1027.65
2023-01-22T20:00:44.688Z,1027.66
2023-01-22T20:01:42.764Z,1027.62
2023-01-22T20:03:06.041Z,1027.65
2023-01-22T20:07:16.163Z,1027.72
2023-01-22T20:12:21.067Z,1027.76
2023-01-22T20:14:55.209Z,1027.74
2023-01-22T20:16:18.355Z,1027.78
2023-01-22T20:20:51.117Z,1027.81
2023-01-22T20:21:53.447Z,1027.84
2023-01-22T20:23:06.572Z,1027.85
2023-01-22T20:26:03.003Z,1027.94
2023-01-22T20:30:02.853Z,1027.99
2023-01-22T20:31:03.331Z,1027.97
2023-01-22T20:37:06.720Z,1027.97
2023-01-22T20:38:07.620Z,1028.03
2023-01-22T20:39:07.853Z,1028.01
2023-01-22T20:40:07.568Z,1027.99
2023-01-22T20:41:08.061Z,1027.98
2023-01-22T20:42:05.487Z,1027.96
2023-01-22T20:49:45.296Z,1028.14
2023-01-22T20:52:59.237Z,1028.18
2023-01-22T20:55:41.526Z,1028.20
2023-01-22T20:56:40.639Z,1028.19
2023-01-22T20:57:40.473Z,1028.25
2023-01-22T21:17:05.629Z,1028.32
2023-01-22T21:25:13.500Z,1028.46
2023-01-22T21:25:50.913Z,1028.49
2023-01-22T21:27:00.477Z,1028.51
2023-01-22T21:27:51.315Z,1028.45
2023-01-22T21:32:29.685Z,1028.45
2023-01-22T21:33:30.226Z,1028.50
2023-01-22T21:34:29.151Z,1028.51
2023-01-22T21:37:20.747Z,1028.46
2023-01-22T21:38:09.099Z,1028.45
2023-01-22T21:39:09.122Z,1028.46
2023-01-22T21:40:09.108Z,1028.46
2023-01-22T21:41:09.074Z,1028.46
2023-01-22T21:42:09.096Z,1028.48
2023-01-22T21:43:09.072Z,1028.48
2023-01-22T21:44:09.083Z,1028.41
2023-01-22T21:45:09.065Z,1028.45
2023-01-22T21:46:09.112Z,1028.42
2023-01-22T21:47:09.047Z,1028.44
2023-01-22T21:48:10.514Z,1028.46
2023-01-22T21:49:09.655Z,1028.42
2023-01-22T22:11:39.355Z,1028.57
2023-01-22T22:11:59.885Z,1028.57
2023-01-22T22:12:59.761Z,1028.58
2023-01-22T22:29:26.820Z,1028.77
2023-01-22T22:40:12.627Z,1028.87
2023-01-22T22:40:51.679Z,1028.85
2023-01-22T22:41:51.596Z,1028.90
2023-01-22T22:42:55.167Z,1028.90
2023-01-22T22:43:51.566Z,1028.90
2023-01-22T22:44:51.666Z,1028.91
2023-01-22T22:45:51.612Z,1028.92
2023-01-22T22:46:51.582Z,1028.87
2023-01-22T22:47:52.197Z,1028.91
2023-01-22T22:48:52.130Z,1028.91
2023-01-22T22:49:52.283Z,1028.89
2023-01-22T22:50:52.177Z,1028.92
2023-01-22T22:51:51.545Z,1028.88
2023-01-22T22:52:51.659Z,1028.89
2023-01-22T22:53:51.572Z,1028.93
2023-01-22T22:54:51.518Z,1028.93
2023-01-22T22:55:51.599Z,1028.91
2023-01-22T22:56:51.508Z,1028.94
2023-01-22T22:57:51.512Z,1028.93
2023-01-22T22:58:51.507Z,1029.00
2023-01-22T22:59:51.562Z,1028.97
2023-01-22T23:00:51.576Z,1028.94
2023-01-22T23:01:51.490Z,1028.92
2023-01-22T23:02:51.506Z,1028.96
2023-01-22T23:03:51.598Z,1028.92
2023-01-22T23:04:51.458Z,1028.96
2023-01-22T23:05:51.472Z,1028.97
2023-01-22T23:06:51.463Z,1028.94
2023-01-22T23:07:51.514Z,1028.94
2023-01-22T23:08:51.478Z,1028.96
2023-01-22T23:09:51.456Z,1028.92
2023-01-22T23:10:51.457Z,1028.92
2023-01-22T23:11:51.454Z,1028.86
2023-01-22T23:12:51.493Z,1028.91
2023-01-22T23:13:51.541Z,1028.90
2023-01-22T23:14:51.474Z,1028.93
2023-01-22T23:15:52.136Z,1028.93
2023-01-22T23:16:51.589Z,1028.92
2023-01-22T23:17:51.461Z,1028.96
2023-01-22T23:18:51.462Z,1028.97
2023-01-22T23:19:51.451Z,1029.00
2023-01-22T23:20:51.442Z,1028.93
2023-01-22T23:21:51.427Z,1028.98
2023-01-22T23:22:51.396Z,1028.95
2023-01-22T23:23:51.469Z,1029.01
2023-01-22T23:24:51.472Z,1029.07
2023-01-22T23:25:51.561Z,1029.06
2023-01-22T23:26:51.478Z,1029.05
2023-01-22T23:27:51.415Z,1029.05
2023-01-22T23:28:51.494Z,1029.04
2023-01-22T23:29:51.427Z,1029.00
2023-01-22T23:30:51.432Z,1029.05
2023-01-22T23:31:51.623Z,1029.06
2023-01-22T23:32:51.469Z,1029.10
2023-01-22T23:33:51.487Z,1029.13
2023-01-22T23:34:53.644Z,1029.11
2023-01-22T23:35:51.455Z,1029.07
2023-01-22T23:36:53.391Z,1029.15
2023-01-22T23:37:51.375Z,1029.13
2023-01-22T23:38:53.164Z,1029.17
2023-01-22T23:39:51.569Z,1029.19
2023-01-22T23:40:51.473Z,1029.27
2023-01-22T23:41:51.430Z,1029.24
2023-01-22T23:42:51.407Z,1029.23
2023-01-22T23:43:52.182Z,1029.29
2023-01-22T23:44:51.465Z,1029.32
2023-01-22T23:45:51.500Z,1029.33
2023-01-22T23:46:52.144Z,1029.32
2023-01-22T23:47:52.139Z,1029.34
2023-01-22T23:48:51.433Z,1029.36
2023-01-22T23:49:54.189Z,1029.36
2023-01-22T23:50:51.569Z,1029.37
2023-01-22T23:51:51.464Z,1029.35
2023-01-22T23:52:52.139Z,1029.35
2023-01-22T23:53:53.361Z,1029.36
2023-01-22T23:54:51.392Z,1029.36
2023-01-22T23:55:52.338Z,1029.43
2023-01-22T23:56:58.153Z,1029.42
2023-01-22T23:57:53.661Z,1029.39
2023-01-22T23:58:54.645Z,1029.37
2023-01-22T23:59:55.192Z,1029.38
